createdAt,value
2023-01-02T00:09:23.744Z,3.33
2023-01-02T00:19:27.077Z,7.85
2023-01-02T00:29:29.015Z,5.65
2023-01-02T00:39:32.418Z,5.88
2023-01-02T00:49:34.394Z,6.85
2023-01-02T00:59:37.755Z,2.92
2023-01-02T01:09:39.736Z,4.10
2023-01-02T01:19:43.053Z,4.75
2023-01-02T01:29:45.118Z,7.38
2023-01-02T01:39:51.522Z,3.92
2023-01-02T01:50:05.188Z,5.90
2023-01-02T02:00:11.092Z,3.83
2023-01-02T02:10:13.181Z,4.35
2023-01-02T02:20:30.025Z,4.00
2023-01-02T02:30:37.314Z,4.60
2023-01-02T02:40:50.295Z,4.45
2023-01-02T02:51:00.587Z,5.15
2023-01-02T03:01:04.458Z,4.25
2023-01-02T03:11:08.777Z,5.65
2023-01-02T03:21:13.013Z,2.05
2023-01-02T03:31:18.817Z,10.15
2023-01-02T03:41:23.638Z,8.60
2023-01-02T03:51:27.163Z,8.80
2023-01-02T04:01:38.752Z,4.82
2023-01-02T04:11:47.004Z,11.88
2023-01-02T04:21:52.219Z,4.65
2023-01-02T04:32:01.240Z,7.95
2023-01-02T04:42:03.217Z,10.07
2023-01-02T04:52:06.532Z,5.63
2023-01-02T05:02:08.586Z,6.45
2023-01-02T05:12:12.037Z,8.55
2023-01-02T05:22:14.012Z,4.75
2023-01-02T05:32:17.311Z,9.85
2023-01-02T05:42:19.242Z,6.45
2023-01-02T05:52:22.630Z,6.60
2023-01-02T06:02:24.662Z,5.95
2023-01-02T06:12:28.107Z,11.95
2023-01-02T06:22:30.921Z,11.60
2023-01-02T06:32:34.271Z,12.65
2023-01-02T06:42:36.225Z,11.57
2023-01-02T06:52:39.532Z,5.30
2023-01-02T07:02:41.619Z,12.73
2023-01-02T07:12:45.030Z,5.57
2023-01-02T07:22:49.911Z,7.68
2023-01-02T07:32:54.808Z,4.72
2023-01-02T07:42:56.778Z,5.00
2023-01-02T07:53:00.105Z,5.05
2023-01-02T08:03:02.079Z,5.43
2023-01-02T08:13:05.512Z,7.97
2023-01-02T08:23:07.469Z,5.63
2023-01-02T08:33:10.750Z,4.85
2023-01-02T08:43:12.735Z,6.13
2023-01-02T08:53:16.158Z,6.38
2023-01-02T09:03:18.140Z,5.97
2023-01-02T09:13:21.541Z,5.13
2023-01-02T09:23:23.474Z,7.70
2023-01-02T09:33:26.895Z,10.65
2023-01-02T09:43:34.802Z,7.80
2023-01-02T09:53:38.403Z,6.78
2023-01-02T10:03:49.317Z,9.02
2023-01-02T10:24:28.532Z,5.85
2023-01-02T10:34:39.542Z,12.75
2023-01-02T10:44:43.688Z,8.70
2023-01-02T10:54:58.625Z,5.30
2023-01-02T11:05:03.794Z,9.45
2023-01-02T11:15:22.601Z,5.70
2023-01-02T11:25:32.439Z,3.65
2023-01-02T11:35:38.713Z,4.53
2023-01-02T11:45:41.545Z,7.40
2023-01-02T11:55:51.669Z,7.03
2023-01-02T12:06:02.783Z,6.10
2023-01-02T12:16:21.839Z,5.90
2023-01-02T12:26:28.426Z,4.32
2023-01-02T12:36:47.330Z,4.30
2023-01-02T12:47:22.292Z,6.43
2023-01-02T12:57:30.818Z,4.72
2023-01-02T13:07:37.246Z,4.78
2023-01-02T13:17:53.309Z,6.07
2023-01-02T13:27:57.042Z,5.68
2023-01-02T13:38:03.139Z,4.40
2023-01-02T13:48:07.638Z,5.28
2023-01-02T13:58:50.477Z,4.07
2023-01-02T14:09:10.230Z,5.47
2023-01-02T14:19:20.126Z,9.13
2023-01-02T14:29:23.158Z,3.47
2023-01-02T14:39:28.799Z,8.82
2023-01-02T14:49:32.950Z,4.25
2023-01-02T14:59:42.289Z,3.30
2023-01-02T15:09:47.213Z,3.63
2023-01-02T15:19:50.743Z,2.22
2023-01-02T15:29:55.282Z,4.78
2023-01-02T15:39:58.630Z,3.72
2023-01-02T15:50:02.551Z,3.55
2023-01-02T16:00:34.050Z,5.65
2023-01-02T16:10:36.039Z,5.57
2023-01-02T16:20:39.459Z,4.25
2023-01-02T16:30:43.241Z,11.20
2023-01-02T16:41:00.137Z,7.30
2023-01-02T16:51:04.443Z,10.70
2023-01-02T17:01:11.015Z,9.52
2023-01-02T17:11:15.591Z,17.77
2023-01-02T17:21:18.945Z,8.95
2023-01-02T17:31:25.469Z,7.20
2023-01-02T17:41:29.440Z,7.82
2023-01-02T17:51:31.382Z,7.80
2023-01-02T18:01:34.840Z,6.95
2023-01-02T18:11:36.930Z,10.63
2023-01-02T18:21:40.442Z,8.40
2023-01-02T18:31:44.651Z,13.70
2023-01-02T18:41:48.111Z,9.52
2023-01-02T18:51:58.663Z,12.30
2023-01-02T19:12:23.691Z,8.10
2023-01-02T19:22:32.319Z,11.60
2023-01-02T19:32:35.981Z,15.38
2023-01-02T19:42:39.316Z,14.05
2023-01-02T19:52:41.700Z,10.05
2023-01-02T20:02:45.991Z,11.63
2023-01-02T20:12:48.201Z,17.45
2023-01-02T20:22:52.339Z,15.45
2023-01-02T20:32:54.842Z,20.13
2023-01-02T20:42:58.194Z,13.48
2023-01-02T20:53:00.216Z,10.93
2023-01-02T21:03:04.239Z,17.05
2023-01-02T21:13:06.360Z,16.98
2023-01-02T21:23:09.966Z,12.82
2023-01-02T21:33:12.742Z,13.60
2023-01-02T21:43:16.232Z,14.27
2023-01-02T21:53:18.209Z,10.52
2023-01-02T22:03:21.681Z,13.32
2023-01-02T22:13:23.866Z,9.48
2023-01-02T22:23:27.221Z,12.60
2023-01-02T22:33:29.178Z,13.48
2023-01-02T22:43:35.686Z,10.43
2023-01-02T22:53:38.837Z,21.48
2023-01-02T23:03:43.229Z,14.38
2023-01-02T23:13:49.010Z,11.65
2023-01-02T23:23:55.144Z,7.88
2023-01-02T23:33:57.354Z,8.85
2023-01-02T23:44:01.020Z,10.65
2023-01-02T23:54:03.123Z,10.63
